Time,TemperatureF,DewpointF,PressureIn,WindDirection,WindDirectionDegrees,WindSpeedMPH,WindSpeedGustMPH,Humidity,HourlyPrecipIn,Conditions,Clouds,dailyrainin,SolarRadiationWatts/m^2,SoftwareType,DateUTC
2013-10-28 08:10:00,47.2,46.7,28.79,ESE,106,1.0,4.0,98,0.00,FEW,,0.00,0.0,WeatherDisplay:10.37,2013-10-28 13:10:00,
2013-10-28 08:20:00,47.4,46.8,28.80,ESE,106,0.0,0.0,98,0.00,FEW,,0.00,0.0,WeatherDisplay:10.37,2013-10-28 13:20:00,
2013-10-28 08:30:00,47.7,47.2,28.81,ESE,110,1.0,4.0,98,0.00,FEW,,0.00,0.0,WeatherDisplay:10.37,2013-10-28 13:30:00,
2013-10-28 08:40:00,47.9,47.4,28.81,ESE,117,0.0,4.0,98,0.00,FEW,,0.00,0.0,WeatherDisplay:10.37,2013-10-28 13:40:00,
2013-10-28 08:50:00,47.7,47.2,28.81,SE,136,1.0,4.0,98,0.00,FEW,,0.00,0.0,WeatherDisplay:10.37,2013-10-28 13:50:00,
2013-10-28 09:00:00,47.8,47.3,28.82,SE,136,0.0,4.0,98,0.00,FEW,,0.00,0.0,WeatherDisplay:10.37,2013-10-28 14:00:00,
2013-10-28 09:10:00,48.2,47.7,28.83,SE,136,0.0,3.0,98,0.00,FEW,,0.00,0.0,WeatherDisplay:10.37,2013-10-28 14:10:00,
2013-10-28 09:20:00,48.2,47.7,28.83,SE,136,3.0,4.0,98,0.00,FEW,,0.00,0.0,WeatherDisplay:10.37,2013-10-28 14:20:00,
2013-10-28 09:30:00,48.3,47.7,28.83,SSE,167,1.0,4.0,98,0.00,FEW,,0.00,0.0,WeatherDisplay:10.37,2013-10-28 14:30:00,
2013-10-28 09:40:00,48.4,47.8,28.83,SSE,166,0.0,6.0,98,0.00,FEW,,0.00,0.0,WeatherDisplay:10.37,2013-10-28 14:40:00,
2013-10-28 09:50:00,48.4,47.9,28.83,SE,144,3.0,6.0,98,0.00,FEW,,0.00,0.0,WeatherDisplay:10.37,2013-10-28 14:50:00,
2013-10-28 10:00:00,48.6,48.1,28.84,SSE,160,1.0,5.0,98,0.00,FEW,,0.00,0.0,WeatherDisplay:10.37,2013-10-28 15:00:00,
2013-10-28 10:10:00,48.8,48.3,28.84,SSE,160,0.0,5.0,98,0.00,FEW,,0.00,0.0,WeatherDisplay:10.37,2013-10-28 15:10:00,
2013-10-28 10:20:00,49.5,48.9,28.84,SSE,160,1.0,4.0,98,0.00,FEW,,0.00,0.0,WeatherDisplay:10.37,2013-10-28 15:20:00,
2013-10-28 10:30:00,49.6,49.1,28.84,SSE,161,0.0,5.0,98,0.00,FEW,,0.00,0.0,WeatherDisplay:10.37,2013-10-28 15:30:00,
2013-10-28 10:40:00,50.0,49.5,28.84,SSE,159,0.0,6.0,98,0.00,FEW,,0.00,0.0,WeatherDisplay:10.37,2013-10-28 15:40:00,
2013-10-28 10:50:00,50.5,50.0,28.84,SSE,159,1.0,5.0,98,0.00,FEW,,0.00,0.0,WeatherDisplay:10.37,2013-10-28 15:50:00,
2013-10-28 11:00:00,51.0,50.7,28.84,SSE,159,1.0,5.0,99,0.00,FEW,,0.00,0.0,WeatherDisplay:10.37,2013-10-28 16:00:00,
2013-10-28 11:10:00,51.3,51.1,28.84,SSE,159,0.0,5.0,99,0.00,FEW,,0.00,0.0,WeatherDisplay:10.37,2013-10-28 16:10:00,
2013-10-28 11:20:00,52.1,51.8,28.84,SSE,162,0.0,5.0,99,0.00,FEW,,0.00,0.0,WeatherDisplay:10.37,2013-10-28 16:20:00,
2013-10-28 11:30:00,52.6,52.3,28.84,South,188,0.0,5.0,99,0.00,FEW,,0.00,0.0,WeatherDisplay:10.37,2013-10-28 16:30:00,
2013-10-28 11:40:00,53.0,52.8,28.84,SSE,158,0.0,4.0,99,0.00,FEW,,0.00,0.0,WeatherDisplay:10.37,2013-10-28 16:40:00,
2013-10-28 11:50:00,53.8,53.6,28.84,SSW,200,0.0,5.0,99,0.00,FEW,,0.00,0.0,WeatherDisplay:10.37,2013-10-28 16:50:00,
2013-10-28 12:00:00,54.6,54.3,28.84,SSW,199,2.0,6.0,99,0.00,FEW,,0.00,0.0,WeatherDisplay:10.37,2013-10-28 17:00:00,
2013-10-28 12:10:00,55.5,55.2,28.84,South,184,1.0,6.0,99,0.00,FEW,,0.00,0.0,WeatherDisplay:10.37,2013-10-28 17:10:00,
2013-10-28 12:20:00,56.6,55.5,28.83,South,178,2.0,6.0,96,0.00,FEW,,0.00,0.0,WeatherDisplay:10.37,2013-10-28 17:20:00,
2013-10-28 12:30:00,57.7,55.4,28.83,South,170,0.0,4.0,92,0.00,FEW,,0.00,0.0,WeatherDisplay:10.37,2013-10-28 17:30:00,
2013-10-28 12:40:00,59.4,55.6,28.83,SSE,151,1.0,5.0,87,0.00,FEW,,0.00,0.0,WeatherDisplay:10.37,2013-10-28 17:40:00,
2013-10-28 12:50:00,60.2,54.7,28.82,South,176,1.0,10.0,82,0.00,FEW,,0.00,0.0,WeatherDisplay:10.37,2013-10-28 17:50:00,
2013-10-28 13:00:00,60.8,54.6,28.82,SSE,149,0.0,7.0,80,0.00,FEW,,0.00,0.0,WeatherDisplay:10.37,2013-10-28 18:00:00,
2013-10-28 13:10:00,61.3,54.0,28.82,South,191,2.0,7.0,77,0.00,FEW,,0.00,0.0,WeatherDisplay:10.37,2013-10-28 18:10:00,
2013-10-28 13:20:00,62.0,53.7,28.81,SSW,194,3.0,8.0,74,0.00,FEW,,0.00,0.0,WeatherDisplay:10.37,2013-10-28 18:20:00,
2013-10-28 13:30:00,61.8,52.7,28.80,SE,144,1.0,10.0,72,0.00,FEW,,0.00,0.0,WeatherDisplay:10.37,2013-10-28 18:30:00,
2013-10-28 13:40:00,62.3,53.5,28.81,SSE,160,2.0,8.0,73,0.00,FEW,,0.00,0.0,WeatherDisplay:10.37,2013-10-28 18:40:00,
2013-10-28 13:50:00,62.7,53.5,28.80,SSE,167,5.0,10.0,72,0.00,FEW,,0.00,0.0,WeatherDisplay:10.37,2013-10-28 18:50:00,
2013-10-28 14:00:00,63.0,54.2,28.80,South,172,0.0,12.0,73,0.00,FEW,,0.00,0.0,WeatherDisplay:10.37,2013-10-28 19:00:00,
2013-10-28 14:10:00,62.9,53.0,28.79,SSE,159,2.0,9.0,70,0.00,FEW,,0.00,0.0,WeatherDisplay:10.37,2013-10-28 19:10:00,
2013-10-28 14:20:00,63.2,52.9,28.79,SSE,168,3.0,9.0,69,0.00,FEW,,0.00,0.0,WeatherDisplay:10.37,2013-10-28 19:20:00,
2013-10-28 14:30:00,63.2,52.9,28.79,South,175,0.0,12.0,69,0.00,FEW,,0.00,0.0,WeatherDisplay:10.37,2013-10-28 19:30:00,
2013-10-28 14:40:00,63.4,52.2,28.79,SSE,162,3.0,12.0,67,0.00,FEW,,0.00,0.0,WeatherDisplay:10.37,2013-10-28 19:40:00,
2013-10-28 14:50:00,63.8,53.4,28.79,SSW,194,2.0,10.0,69,0.00,FEW,,0.00,0.0,WeatherDisplay:10.37,2013-10-28 19:50:00,
2013-10-28 15:00:00,64.6,53.4,28.79,South,180,3.0,12.0,67,0.00,FEW,,0.00,0.0,WeatherDisplay:10.37,2013-10-28 20:00:00,
2013-10-28 15:10:00,64.9,52.8,28.79,SSE,168,2.0,10.0,65,0.00,FEW,,0.00,0.0,WeatherDisplay:10.37,2013-10-28 20:10:00,
2013-10-28 15:20:00,65.0,52.9,28.79,South,183,5.0,13.0,65,0.00,FEW,,0.00,0.0,WeatherDisplay:10.37,2013-10-28 20:20:00,
2013-10-28 15:30:00,64.6,53.4,28.79,SSE,154,2.0,12.0,67,0.00,FEW,,0.00,0.0,WeatherDisplay:10.37,2013-10-28 20:30:00,
2013-10-28 15:40:00,64.9,53.7,28.78,South,171,2.0,10.0,67,0.00,FEW,,0.00,0.0,WeatherDisplay:10.37,2013-10-28 20:40:00,
2013-10-28 15:50:00,64.7,53.1,28.78,SSE,164,6.0,10.0,66,0.00,FEW,,0.00,0.0,WeatherDisplay:10.37,2013-10-28 20:50:00,
2013-10-28 16:00:00,64.3,53.1,28.78,SSE,157,2.0,12.0,67,0.00,FEW,,0.00,0.0,WeatherDisplay:10.37,2013-10-28 21:00:00,
2013-10-28 16:10:00,64.3,53.5,28.78,SSE,158,3.0,14.0,68,0.00,FEW,,0.00,0.0,WeatherDisplay:10.37,2013-10-28 21:10:00,
2013-10-28 16:20:00,64.7,53.5,28.78,SSE,154,5.0,9.0,67,0.00,FEW,,0.00,0.0,WeatherDisplay:10.37,2013-10-28 21:20:00,
2013-10-28 16:30:00,64.4,53.6,28.78,SSE,153,2.0,12.0,68,0.00,FEW,,0.00,0.0,WeatherDisplay:10.37,2013-10-28 21:30:00,
2013-10-28 16:40:00,65.1,54.3,28.78,SSE,156,2.0,8.0,68,0.00,FEW,,0.00,0.0,WeatherDisplay:10.37,2013-10-28 21:40:00,
2013-10-28 16:50:00,65.3,54.1,28.78,SSE,149,7.0,12.0,67,0.00,FEW,,0.00,0.0,WeatherDisplay:10.37,2013-10-28 21:50:00,
2013-10-28 17:00:00,65.0,53.7,28.78,SSE,149,5.0,12.0,67,0.00,FEW,,0.00,0.0,WeatherDisplay:10.37,2013-10-28 22:00:00,
2013-10-28 17:10:00,64.6,53.4,28.78,SSE,152,7.0,12.0,67,0.00,FEW,,0.00,0.0,WeatherDisplay:10.37,2013-10-28 22:10:00,
2013-10-28 17:20:00,64.4,53.6,28.78,SSE,151,5.0,12.0,68,0.00,FEW,,0.00,0.0,WeatherDisplay:10.37,2013-10-28 22:20:00,
2013-10-28 17:30:00,64.2,53.4,28.78,SSE,150,5.0,12.0,68,0.00,FEW,,0.00,0.0,WeatherDisplay:10.37,2013-10-28 22:30:00,
2013-10-28 17:40:00,63.7,53.4,28.78,SSE,164,2.0,9.0,69,0.00,FEW,,0.00,0.0,WeatherDisplay:10.37,2013-10-28 22:40:00,
2013-10-28 17:50:00,63.2,53.2,28.78,SSE,153,3.0,8.0,70,0.00,FEW,,0.00,0.0,WeatherDisplay:10.37,2013-10-28 22:50:00,
2013-10-28 18:00:00,62.6,53.1,28.78,SSE,151,0.0,4.0,71,0.00,FEW,,0.00,0.0,WeatherDisplay:10.37,2013-10-28 23:00:00,
2013-10-28 18:10:00,62.1,53.0,28.78,SSE,151,0.0,1.0,72,0.00,FEW,,0.00,0.0,WeatherDisplay:10.37,2013-10-28 23:10:00,
2013-10-28 18:20:00,61.6,52.9,28.78,SSE,151,0.0,1.0,73,0.00,FEW,,0.00,0.0,WeatherDisplay:10.37,2013-10-28 23:20:00,
2013-10-28 18:30:00,61.2,52.8,28.78,SSE,151,0.0,4.0,74,0.00,FEW,,0.00,0.0,WeatherDisplay:10.37,2013-10-28 23:30:00,
2013-10-28 18:40:00,60.7,52.4,28.78,SSE,151,0.0,1.0,74,0.00,FEW,,0.00,0.0,WeatherDisplay:10.37,2013-10-28 23:40:00,
2013-10-28 18:50:00,60.2,52.2,28.79,SSE,151,0.0,1.0,75,0.00,FEW,,0.00,0.0,WeatherDisplay:10.37,2013-10-28 23:50:00,
2013-10-28 19:00:00,59.5,52.0,28.79,SSE,151,0.0,0.0,76,0.00,FEW,,0.00,0.0,WeatherDisplay:10.37,2013-10-29 00:00:00,
2013-10-28 19:10:00,58.9,51.7,28.79,SSE,150,0.0,4.0,77,0.00,FEW,,0.00,0.0,WeatherDisplay:10.37,2013-10-29 00:10:00,
2013-10-28 19:20:00,58.7,51.9,28.80,SSE,148,0.0,4.0,78,0.00,FEW,,0.00,0.0,WeatherDisplay:10.37,2013-10-29 00:20:00,
2013-10-28 19:30:00,58.6,51.8,28.80,SSE,148,0.0,4.0,78,0.00,FEW,,0.00,0.0,WeatherDisplay:10.37,2013-10-29 00:30:00,
2013-10-28 19:40:00,58.4,51.9,28.80,SSE,148,0.0,5.0,79,0.00,FEW,,0.00,0.0,WeatherDisplay:10.37,2013-10-29 00:40:00,
2013-10-28 19:50:00,58.0,51.5,28.81,SSE,148,0.0,1.0,79,0.00,FEW,,0.00,0.0,WeatherDisplay:10.37,2013-10-29 00:50:00,
2013-10-28 20:00:00,57.7,51.6,28.81,SSE,148,0.0,1.0,80,0.00,FEW,,0.00,0.0,WeatherDisplay:10.37,2013-10-29 01:00:00,
2013-10-28 20:10:00,57.3,51.5,28.81,SSE,148,0.0,2.0,81,0.00,FEW,,0.00,0.0,WeatherDisplay:10.37,2013-10-29 01:10:00,
2013-10-28 20:20:00,57.1,51.4,28.81,SSE,148,0.0,4.0,81,0.00,FEW,,0.00,0.0,WeatherDisplay:10.37,2013-10-29 01:20:00,
2013-10-28 20:30:00,57.0,51.6,28.81,SE,137,1.0,5.0,82,0.00,FEW,,0.00,0.0,WeatherDisplay:10.37,2013-10-29 01:30:00,
2013-10-28 20:40:00,56.8,51.3,28.81,SE,134,0.0,0.0,82,0.00,FEW,,0.00,0.0,WeatherDisplay:10.37,2013-10-29 01:40:00,
2013-10-28 20:50:00,56.4,51.3,28.81,SE,134,0.0,3.0,83,0.00,FEW,,0.00,0.0,WeatherDisplay:10.37,2013-10-29 01:50:00,
2013-10-28 21:00:00,56.3,51.5,28.81,SE,134,0.0,0.0,84,0.00,FEW,,0.00,0.0,WeatherDisplay:10.37,2013-10-29 02:00:00,
2013-10-28 21:10:00,56.0,51.2,28.82,SE,134,0.0,3.0,84,0.00,FEW,,0.00,0.0,WeatherDisplay:10.37,2013-10-29 02:10:00,
2013-10-28 21:20:00,55.9,51.5,28.82,SE,134,0.0,3.0,85,0.00,FEW,,0.00,0.0,WeatherDisplay:10.37,2013-10-29 02:20:00,
2013-10-28 21:30:00,55.8,51.4,28.82,SE,134,0.0,2.0,85,0.00,FEW,,0.00,0.0,WeatherDisplay:10.37,2013-10-29 02:30:00,
2013-10-28 21:40:00,55.5,51.4,28.82,SE,135,1.0,4.0,86,0.00,FEW,,0.00,0.0,WeatherDisplay:10.37,2013-10-29 02:40:00,
2013-10-28 21:50:00,55.3,51.2,28.82,SE,135,0.0,5.0,86,0.00,FEW,,0.00,0.0,WeatherDisplay:10.37,2013-10-29 02:50:00,
2013-10-28 22:00:00,55.0,51.2,28.82,SE,135,1.0,5.0,87,0.00,FEW,,0.00,0.0,WeatherDisplay:10.37,2013-10-29 03:00:00,
2013-10-28 22:10:00,54.8,51.3,28.82,SE,134,1.0,6.0,88,0.00,FEW,,0.00,0.0,WeatherDisplay:10.37,2013-10-29 03:10:00,
2013-10-28 22:20:00,54.7,51.6,28.83,SE,134,0.0,4.0,89,0.00,FEW,,0.00,0.0,WeatherDisplay:10.37,2013-10-29 03:20:00,
2013-10-28 22:30:00,54.7,51.5,28.83,SE,134,1.0,5.0,89,0.00,FEW,,0.00,0.0,WeatherDisplay:10.37,2013-10-29 03:30:00,
2013-10-28 22:40:00,54.6,51.4,28.83,SE,134,0.0,4.0,89,0.00,FEW,,0.00,0.0,WeatherDisplay:10.37,2013-10-29 03:40:00,
2013-10-28 22:50:00,54.4,51.2,28.84,SE,134,0.0,1.0,89,0.00,FEW,,0.00,0.0,WeatherDisplay:10.37,2013-10-29 03:50:00,
2013-10-28 23:00:00,54.0,51.1,28.84,SE,134,0.0,0.0,90,0.00,FEW,,0.00,0.0,WeatherDisplay:10.37,2013-10-29 04:00:00,
2013-10-28 23:10:00,53.6,50.7,28.84,SE,134,0.0,0.0,90,0.00,FEW,,0.00,0.0,WeatherDisplay:10.37,2013-10-29 04:10:00,
2013-10-28 23:20:00,53.3,50.7,28.83,SE,134,1.0,3.0,91,0.00,FEW,,0.00,0.0,WeatherDisplay:10.37,2013-10-29 04:20:00,
2013-10-28 23:30:00,53.1,50.9,28.83,SE,134,0.0,3.0,92,0.00,FEW,,0.00,0.0,WeatherDisplay:10.37,2013-10-29 04:30:00,
2013-10-28 23:40:00,52.8,50.6,28.83,SE,134,0.0,0.0,92,0.00,FEW,,0.00,0.0,WeatherDisplay:10.37,2013-10-29 04:40:00,
2013-10-28 23:50:00,52.6,50.6,28.83,SE,134,0.0,1.0,93,0.00,FEW,,0.00,0.0,WeatherDisplay:10.37,2013-10-29 04:50:00,